Time;durP1;ratioP1;P1;durP2;ratioP2;P2;SDS_P1;SDS_P2;PMS_P1;PMS_P2;Temp;Humidity;BMP_temperature;BMP_pressure;BME280_temperature;BME280_humidity;BME280_pressure;Samples;Min_cycle;Max_cycle;Signal;HPM_P1;HPM_P2
2021/07/16 00:00:43;;;;;;;0.10;0.10;;;;;;;;;;4810811;29;20038;-90
2021/07/16 00:03:09;;;;;;;0.20;0.20;;;;;;;;;;4810917;29;20046;-91
2021/07/16 00:05:36;;;;;;;0.20;0.20;;;;;;;;;;4796041;29;20103;-90
2021/07/16 00:08:02;;;;;;;0.30;0.30;;;;;;;;;;4810704;29;20047;-92
2021/07/16 00:10:28;;;;;;;0.20;0.20;;;;;;;;;;4810692;29;20441;-91
2021/07/16 00:12:54;;;;;;;0.10;0.10;;;;;;;;;;4811009;29;20043;-90
2021/07/16 00:15:20;;;;;;;0.20;0.20;;;;;;;;;;4810736;29;20042;-91
2021/07/16 00:17:46;;;;;;;0.20;0.20;;;;;;;;;;4810426;29;20057;-90
2021/07/16 00:20:12;;;;;;;0.30;0.30;;;;;;;;;;4825502;29;20479;-90
2021/07/16 00:22:38;;;;;;;0.20;0.20;;;;;;;;;;4810578;29;20431;-92
2021/07/16 00:25:05;;;;;;;0.20;0.20;;;;;;;;;;4810965;29;20126;-93
2021/07/16 00:27:31;;;;;;;0.17;0.17;;;;;;;;;;4810534;29;20038;-91
2021/07/16 00:29:57;;;;;;;0.60;0.60;;;;;;;;;;4825247;29;20475;-91
2021/07/16 00:32:23;;;;;;;1.05;1.05;;;;;;;;;;4810100;29;20069;-91
2021/07/16 00:34:49;;;;;;;0.10;0.10;;;;;;;;;;4810726;29;20046;-92
2021/07/16 00:37:19;;;;;;;0.17;0.17;;;;;;;;;;4796292;29;20062;-90
2021/07/16 00:39:45;;;;;;;0.20;0.20;;;;;;;;;;4810228;29;20042;-91
2021/07/16 00:42:11;;;;;;;0.10;0.10;;;;;;;;;;4810378;29;20121;-92
2021/07/16 00:44:37;;;;;;;0.20;0.20;;;;;;;;;;4825239;29;20038;-91
2021/07/16 00:47:05;;;;;;;0.20;0.20;;;;;;;;;;4810883;29;20049;-94
2021/07/16 00:49:32;;;;;;;0.10;0.10;;;;;;;;;;4826367;29;20042;-93
2021/07/16 00:51:58;;;;;;;0.10;0.10;;;;;;;;;;4810399;29;20047;-92
2021/07/16 00:54:24;;;;;;;0.20;0.20;;;;;;;;;;4810404;29;20062;-92
2021/07/16 00:56:51;;;;;;;0.10;0.10;;;;;;;;;;4825210;29;20039;-91
2021/07/16 00:59:17;;;;;;;0.10;0.10;;;;;;;;;;4809904;29;20121;-91
2021/07/16 01:01:43;;;;;;;0.10;0.10;;;;;;;;;;4824542;29;20452;-90
2021/07/16 01:04:09;;;;;;;0.20;0.20;;;;;;;;;;4824638;29;20046;-90
2021/07/16 01:06:35;;;;;;;0.10;0.10;;;;;;;;;;4809390;29;20050;-91
2021/07/16 01:09:01;;;;;;;0.15;0.15;;;;;;;;;;4809857;29;20052;-91
2021/07/16 01:11:27;;;;;;;0.20;0.20;;;;;;;;;;4824858;29;20509;-91
2021/07/16 01:13:54;;;;;;;0.10;0.10;;;;;;;;;;4809975;29;20130;-92
2021/07/16 01:16:20;;;;;;;0.10;0.10;;;;;;;;;;4795148;29;20436;-91
2021/07/16 01:18:46;;;;;;;0.20;0.20;;;;;;;;;;4809675;29;20049;-90
2021/07/16 01:21:12;;;;;;;0.10;0.10;;;;;;;;;;4809403;29;20042;-92
2021/07/16 01:23:39;;;;;;;0.20;0.20;;;;;;;;;;4809750;29;20099;-93
2021/07/16 01:26:05;;;;;;;0.20;0.20;;;;;;;;;;4809562;29;20042;-91
2021/07/16 01:28:31;;;;;;;0.20;0.20;;;;;;;;;;4824351;29;20057;-91
2021/07/16 01:30:57;;;;;;;0.17;0.17;;;;;;;;;;4824758;29;20451;-93
2021/07/16 01:33:25;;;;;;;0.75;0.40;;;;;;;;;;4809806;29;20558;-91
2021/07/16 01:35:51;;;;;;;0.30;0.30;;;;;;;;;;4794760;29;20080;-92
2021/07/16 01:38:18;;;;;;;0.10;0.10;;;;;;;;;;4809436;29;20046;-91
2021/07/16 01:40:46;;;;;;;0.20;0.20;;;;;;;;;;4809461;29;20061;-91
2021/07/16 01:43:12;;;;;;;0.10;0.10;;;;;;;;;;4809464;29;20140;-92
2021/07/16 01:45:39;;;;;;;0.10;0.10;;;;;;;;;;4794502;29;20086;-92
2021/07/16 01:48:06;;;;;;;0.10;0.10;;;;;;;;;;4824333;29;20064;-92
2021/07/16 01:50:33;;;;;;;0.10;0.10;;;;;;;;;;4809289;29;20046;-91
2021/07/16 01:52:59;;;;;;;0.15;0.15;;;;;;;;;;4794045;29;20076;-91
2021/07/16 01:55:25;;;;;;;0.10;0.10;;;;;;;;;;4809253;29;20107;-90
2021/07/16 01:57:52;;;;;;;0.10;0.10;;;;;;;;;;4808679;29;20045;-90
2021/07/16 02:00:19;;;;;;;0.10;0.10;;;;;;;;;;4808019;29;20099;-90
2021/07/16 02:02:48;;;;;;;0.15;0.15;;;;;;;;;;4808432;29;20523;-91
2021/07/16 02:05:16;;;;;;;0.20;0.20;;;;;;;;;;4809444;29;20042;-91
2021/07/16 02:07:42;;;;;;;0.25;0.20;;;;;;;;;;4824139;29;20483;-93
2021/07/16 02:10:08;;;;;;;0.10;0.10;;;;;;;;;;4809683;29;20066;-93
2021/07/16 02:12:34;;;;;;;0.10;0.10;;;;;;;;;;4824228;29;20046;-93
2021/07/16 02:15:01;;;;;;;0.10;0.10;;;;;;;;;;4794357;29;20461;-93
2021/07/16 02:17:27;;;;;;;0.10;0.10;;;;;;;;;;4809431;29;20046;-92
2021/07/16 02:19:53;;;;;;;0.20;0.20;;;;;;;;;;4794409;29;20056;-92
2021/07/16 02:22:19;;;;;;;0.20;0.20;;;;;;;;;;4808733;29;20042;-91
2021/07/16 02:24:45;;;;;;;0.10;0.10;;;;;;;;;;4808708;29;20402;-91
2021/07/16 02:27:11;;;;;;;0.10;0.10;;;;;;;;;;4808363;29;20043;-90
2021/07/16 02:29:37;;;;;;;1.38;0.65;;;;;;;;;;4808250;29;20042;-91
2021/07/16 02:32:03;;;;;;;0.20;0.20;;;;;;;;;;4823463;29;20046;-91
2021/07/16 02:34:30;;;;;;;0.10;0.10;;;;;;;;;;4808220;29;20039;-91
2021/07/16 02:36:57;;;;;;;0.30;0.28;;;;;;;;;;4808301;29;20039;-90
2021/07/16 02:39:24;;;;;;;0.10;0.10;;;;;;;;;;4808639;29;20052;-91
2021/07/16 02:41:50;;;;;;;0.20;0.20;;;;;;;;;;4793543;29;20415;-92
2021/07/16 02:44:16;;;;;;;0.20;0.20;;;;;;;;;;4823553;29;20047;-93
2021/07/16 02:46:42;;;;;;;0.20;0.20;;;;;;;;;;4808353;29;20053;-93
2021/07/16 02:49:09;;;;;;;0.45;0.45;;;;;;;;;;4793518;29;20494;-92
2021/07/16 02:51:37;;;;;;;0.10;0.10;;;;;;;;;;4793405;29;20054;-92
2021/07/16 02:54:03;;;;;;;0.20;0.20;;;;;;;;;;4823438;29;20077;-92
2021/07/16 02:56:29;;;;;;;0.30;0.30;;;;;;;;;;4808381;29;20106;-91
2021/07/16 02:58:55;;;;;;;0.10;0.10;;;;;;;;;;4808457;29;20130;-92
2021/07/16 03:01:22;;;;;;;0.20;0.20;;;;;;;;;;4808010;29;20050;-91
2021/07/16 03:03:48;;;;;;;0.10;0.10;;;;;;;;;;4808696;29;20450;-92
2021/07/16 03:06:14;;;;;;;0.10;0.10;;;;;;;;;;4808324;29;20412;-92
2021/07/16 03:08:41;;;;;;;0.20;0.20;;;;;;;;;;4793557;29;20054;-93
2021/07/16 03:11:07;;;;;;;0.10;0.10;;;;;;;;;;4808375;29;20183;-92
2021/07/16 03:13:34;;;;;;;0.10;0.10;;;;;;;;;;4823375;29;20046;-92
2021/07/16 03:16:00;;;;;;;0.10;0.10;;;;;;;;;;4823618;29;20066;-92
2021/07/16 03:18:26;;;;;;;0.20;0.20;;;;;;;;;;4808297;29;20395;-92
2021/07/16 03:20:52;;;;;;;0.20;0.20;;;;;;;;;;4793068;29;20396;-92
2021/07/16 03:23:18;;;;;;;0.15;0.15;;;;;;;;;;4808172;29;20078;-92
2021/07/16 03:25:44;;;;;;;0.10;0.10;;;;;;;;;;4808162;29;20209;-91
2021/07/16 03:28:11;;;;;;;0.93;0.93;;;;;;;;;;4823011;29;20034;-93
2021/07/16 03:30:37;;;;;;;0.10;0.10;;;;;;;;;;4807902;29;20066;-92
2021/07/16 03:33:03;;;;;;;0.50;0.50;;;;;;;;;;4807941;29;20050;-92
2021/07/16 03:35:29;;;;;;;0.10;0.10;;;;;;;;;;4823176;29;20508;-91
2021/07/16 03:37:56;;;;;;;0.20;0.20;;;;;;;;;;4822903;29;20049;-93
2021/07/16 03:40:27;;;;;;;0.10;0.10;;;;;;;;;;4793351;29;20059;-92
2021/07/16 03:42:54;;;;;;;0.10;0.10;;;;;;;;;;4793169;29;20046;-93
2021/07/16 03:45:20;;;;;;;0.10;0.10;;;;;;;;;;4807905;29;20071;-93
2021/07/16 03:47:47;;;;;;;0.17;0.17;;;;;;;;;;4792828;29;20058;-90
2021/07/16 03:50:14;;;;;;;0.10;0.10;;;;;;;;;;4807862;29;20057;-90
2021/07/16 03:52:41;;;;;;;0.10;0.10;;;;;;;;;;4807782;29;20042;-91
2021/07/16 03:55:09;;;;;;;0.20;0.20;;;;;;;;;;4795819;29;20118;-91
2021/07/16 03:57:35;;;;;;;0.10;0.10;;;;;;;;;;4810633;29;20125;-91
2021/07/16 04:00:03;;;;;;;0.10;0.10;;;;;;;;;;4810614;29;20037;-90
2021/07/16 04:02:32;;;;;;;0.10;0.10;;;;;;;;;;4811001;29;20073;-91
2021/07/16 04:04:58;;;;;;;0.20;0.20;;;;;;;;;;4810813;29;20044;-92
2021/07/16 04:07:30;;;;;;;0.10;0.10;;;;;;;;;;4810562;29;20040;-92
2021/07/16 04:09:56;;;;;;;0.10;0.10;;;;;;;;;;4796329;29;20082;-90
2021/07/16 04:12:22;;;;;;;0.17;0.17;;;;;;;;;;4810303;29;20506;-91
2021/07/16 04:14:49;;;;;;;0.20;0.20;;;;;;;;;;4810570;29;20178;-91
2021/07/16 04:17:15;;;;;;;0.20;0.20;;;;;;;;;;4810423;29;20046;-91
2021/07/16 04:19:42;;;;;;;0.20;0.20;;;;;;;;;;4795477;29;20056;-91
2021/07/16 04:22:13;;;;;;;0.25;0.25;;;;;;;;;;4811139;29;20050;-91
2021/07/16 04:24:39;;;;;;;0.10;0.10;;;;;;;;;;4827919;29;20078;-90
2021/07/16 04:27:06;;;;;;;0.30;0.28;;;;;;;;;;4813546;29;20052;-90
2021/07/16 04:29:32;;;;;;;0.28;0.28;;;;;;;;;;4813435;29;20056;-90
2021/07/16 04:31:59;;;;;;;0.10;0.10;;;;;;;;;;4828593;29;20050;-91
2021/07/16 04:34:25;;;;;;;0.13;0.13;;;;;;;;;;4798707;29;20064;-91
2021/07/16 04:36:51;;;;;;;0.10;0.10;;;;;;;;;;4798354;29;20483;-92
2021/07/16 04:39:17;;;;;;;0.85;0.32;;;;;;;;;;4813467;29;20414;-89
2021/07/16 04:41:45;;;;;;;0.10;0.10;;;;;;;;;;4797926;29;20061;-90
2021/07/16 04:44:12;;;;;;;0.20;0.20;;;;;;;;;;4828443;29;20103;-91
2021/07/16 04:46:38;;;;;;;0.20;0.20;;;;;;;;;;4813359;29;20046;-92
2021/07/16 04:49:04;;;;;;;0.10;0.10;;;;;;;;;;4813906;29;20098;-91
2021/07/16 04:51:31;;;;;;;0.20;0.20;;;;;;;;;;4828473;29;20046;-92
2021/07/16 04:53:58;;;;;;;0.25;0.25;;;;;;;;;;4795477;29;20480;-92
2021/07/16 04:56:27;;;;;;;0.10;0.10;;;;;;;;;;4796195;29;20057;-91
2021/07/16 04:58:54;;;;;;;0.10;0.10;;;;;;;;;;4810232;29;20038;-93
2021/07/16 05:01:23;;;;;;;0.20;0.20;;;;;;;;;;4825072;29;20052;-92
2021/07/16 05:03:49;;;;;;;0.10;0.10;;;;;;;;;;4810091;29;20042;-92
2021/07/16 05:06:16;;;;;;;0.10;0.10;;;;;;;;;;4825240;29;20066;-91
2021/07/16 05:08:42;;;;;;;0.20;0.20;;;;;;;;;;4809984;29;20128;-91
2021/07/16 05:11:08;;;;;;;0.10;0.10;;;;;;;;;;4810296;29;20502;-92
2021/07/16 05:13:36;;;;;;;0.10;0.10;;;;;;;;;;4810454;29;20491;-93
2021/07/16 05:16:04;;;;;;;0.10;0.10;;;;;;;;;;4810396;29;20058;-94
2021/07/16 05:18:30;;;;;;;0.10;0.10;;;;;;;;;;4795244;29;20145;-93
2021/07/16 05:20:59;;;;;;;0.10;0.10;;;;;;;;;;4809957;29;20046;-94
2021/07/16 05:23:26;;;;;;;0.20;0.20;;;;;;;;;;4810009;29;20038;-93
2021/07/16 05:25:52;;;;;;;0.10;0.10;;;;;;;;;;4795351;29;20098;-93
2021/07/16 05:28:18;;;;;;;0.20;0.20;;;;;;;;;;4809922;29;20119;-91
2021/07/16 05:30:45;;;;;;;0.20;0.20;;;;;;;;;;4826194;29;20036;-93
2021/07/16 05:33:11;;;;;;;0.20;0.20;;;;;;;;;;4825194;29;20046;-94
2021/07/16 05:35:37;;;;;;;0.20;0.20;;;;;;;;;;4808895;29;20042;-93
2021/07/16 05:38:03;;;;;;;0.20;0.20;;;;;;;;;;4809675;29;20388;-94
2021/07/16 05:40:29;;;;;;;0.20;0.20;;;;;;;;;;4809690;29;20077;-93
2021/07/16 05:42:59;;;;;;;0.20;0.20;;;;;;;;;;4809909;29;20051;-93
2021/07/16 05:45:27;;;;;;;0.10;0.10;;;;;;;;;;4795535;29;20046;-94
2021/07/16 05:47:56;;;;;;;0.20;0.20;;;;;;;;;;4809122;29;20039;-93
2021/07/16 05:50:22;;;;;;;0.13;0.13;;;;;;;;;;4809815;29;20034;-93
2021/07/16 05:52:48;;;;;;;0.20;0.20;;;;;;;;;;4810957;29;20058;-95
2021/07/16 05:55:14;;;;;;;0.32;0.32;;;;;;;;;;4812552;29;20498;-94
2021/07/16 05:57:40;;;;;;;0.20;0.20;;;;;;;;;;4797492;29;20112;-92
2021/07/16 06:00:07;;;;;;;0.20;0.20;;;;;;;;;;4812643;29;20041;-94
2021/07/16 06:02:33;;;;;;;0.15;0.15;;;;;;;;;;4812191;29;20057;-93
2021/07/16 06:04:59;;;;;;;0.10;0.10;;;;;;;;;;4797428;29;20057;-92
2021/07/16 06:07:25;;;;;;;0.17;0.17;;;;;;;;;;4797188;29;20069;-92
2021/07/16 06:09:51;;;;;;;0.10;0.10;;;;;;;;;;4812143;29;20038;-92
2021/07/16 06:12:17;;;;;;;0.10;0.10;;;;;;;;;;4812132;29;20106;-94
2021/07/16 06:14:43;;;;;;;0.10;0.10;;;;;;;;;;4797361;29;20109;-95
2021/07/16 06:17:09;;;;;;;0.10;0.10;;;;;;;;;;4797166;29;20057;-91
2021/07/16 06:19:36;;;;;;;0.10;0.10;;;;;;;;;;4811857;29;20084;-91
2021/07/16 06:22:47;;;;;;;;;;;;;;;;;;;;;
2021/07/16 06:25:32;;;;;;;0.20;0.20;;;;;;;;;;4842889;29;20137;-91
2021/07/16 06:27:58;;;;;;;0.10;0.10;;;;;;;;;;4811610;29;20045;-92
2021/07/16 06:30:24;;;;;;;0.20;0.20;;;;;;;;;;4811449;29;20125;-90
2021/07/16 06:32:50;;;;;;;0.20;0.20;;;;;;;;;;4826344;29;20046;-90
2021/07/16 06:35:16;;;;;;;0.10;0.10;;;;;;;;;;4811194;29;20106;-89
2021/07/16 06:37:42;;;;;;;0.10;0.10;;;;;;;;;;4811516;29;20041;-91
2021/07/16 06:40:09;;;;;;;0.10;0.10;;;;;;;;;;4796689;29;20050;-92
2021/07/16 06:42:35;;;;;;;0.20;0.20;;;;;;;;;;4811682;29;20506;-93
2021/07/16 06:45:02;;;;;;;0.10;0.10;;;;;;;;;;4797119;29;20152;-91
2021/07/16 06:47:28;;;;;;;0.10;0.10;;;;;;;;;;4826352;29;20048;-90
2021/07/16 06:49:54;;;;;;;0.20;0.20;;;;;;;;;;4811643;29;20128;-90
2021/07/16 06:52:21;;;;;;;1.00;1.00;;;;;;;;;;4810991;29;20042;-91
2021/07/16 06:54:47;;;;;;;0.10;0.10;;;;;;;;;;4793176;29;20137;-93
2021/07/16 06:57:13;;;;;;;0.20;0.20;;;;;;;;;;4793519;29;20069;-93
2021/07/16 06:59:39;;;;;;;0.20;0.20;;;;;;;;;;4795496;29;20102;-94
2021/07/16 07:02:05;;;;;;;0.20;0.20;;;;;;;;;;4825187;29;20042;-95
2021/07/16 07:04:31;;;;;;;0.20;0.20;;;;;;;;;;4809011;29;20122;-95
2021/07/16 07:06:57;;;;;;;0.17;0.17;;;;;;;;;;4808413;29;20074;-94
2021/07/16 07:09:23;;;;;;;0.20;0.20;;;;;;;;;;4794048;29;20073;-91
2021/07/16 07:11:49;;;;;;;0.17;0.17;;;;;;;;;;4793250;29;20050;-91
2021/07/16 07:14:16;;;;;;;0.20;0.20;;;;;;;;;;4793118;29;20054;-92
2021/07/16 07:16:42;;;;;;;0.10;0.10;;;;;;;;;;4793169;29;20510;-92
2021/07/16 07:19:08;;;;;;;0.10;0.10;;;;;;;;;;4793101;29;20407;-92
2021/07/16 07:21:34;;;;;;;0.20;0.20;;;;;;;;;;4807900;29;20045;-92
2021/07/16 07:24:00;;;;;;;0.20;0.20;;;;;;;;;;4807974;29;20054;-91
2021/07/16 07:26:30;;;;;;;0.10;0.10;;;;;;;;;;4808282;29;20043;-91
2021/07/16 07:28:56;;;;;;;0.28;0.28;;;;;;;;;;4808292;29;20062;-88
2021/07/16 07:31:22;;;;;;;0.10;0.10;;;;;;;;;;4822625;29;20042;-90
2021/07/16 07:33:49;;;;;;;0.20;0.20;;;;;;;;;;4807455;29;20057;-92
2021/07/16 07:36:15;;;;;;;0.43;0.43;;;;;;;;;;4807806;29;20125;-92
2021/07/16 07:38:43;;;;;;;0.20;0.20;;;;;;;;;;4807656;29;20099;-93
2021/07/16 07:41:09;;;;;;;0.10;0.10;;;;;;;;;;4792905;29;20042;-93
2021/07/16 07:43:35;;;;;;;0.35;0.35;;;;;;;;;;4792906;29;20054;-92
2021/07/16 07:46:04;;;;;;;0.17;0.17;;;;;;;;;;4793713;29;20428;-91
2021/07/16 07:48:31;;;;;;;0.20;0.20;;;;;;;;;;4822526;29;20510;-91
2021/07/16 07:50:57;;;;;;;0.20;0.20;;;;;;;;;;4807395;29;20038;-90
2021/07/16 07:53:24;;;;;;;0.10;0.10;;;;;;;;;;4807440;29;20058;-91
2021/07/16 07:55:50;;;;;;;0.20;0.20;;;;;;;;;;4807248;29;20071;-89
2021/07/16 07:58:16;;;;;;;0.20;0.20;;;;;;;;;;4808127;29;20042;-91
2021/07/16 08:00:42;;;;;;;0.10;0.10;;;;;;;;;;4796233;29;20046;-93
2021/07/16 08:03:08;;;;;;;0.10;0.10;;;;;;;;;;4810713;29;20074;-93
2021/07/16 08:05:34;;;;;;;0.20;0.20;;;;;;;;;;4811693;29;20479;-92
2021/07/16 08:08:00;;;;;;;0.20;0.20;;;;;;;;;;4812911;29;20518;-93
2021/07/16 08:10:27;;;;;;;0.10;0.10;;;;;;;;;;4827148;29;20084;-93
2021/07/16 08:12:55;;;;;;;0.20;0.20;;;;;;;;;;4826301;29;20411;-93
2021/07/16 08:15:21;;;;;;;0.20;0.20;;;;;;;;;;4826797;29;20042;-95
2021/07/16 08:17:47;;;;;;;0.10;0.10;;;;;;;;;;4795963;29;20175;-93
2021/07/16 08:20:13;;;;;;;0.10;0.10;;;;;;;;;;4810950;29;20045;-92
2021/07/16 08:22:40;;;;;;;0.10;0.10;;;;;;;;;;4811051;29;20067;-93
2021/07/16 08:25:06;;;;;;;0.25;0.25;;;;;;;;;;4796348;29;20493;-92
2021/07/16 08:27:32;;;;;;;0.10;0.10;;;;;;;;;;4813701;29;20038;-94
2021/07/16 08:30:04;;;;;;;0.10;0.10;;;;;;;;;;4817016;29;20038;-95
2021/07/16 08:32:32;;;;;;;0.20;0.20;;;;;;;;;;4805224;29;20426;-96
2021/07/16 08:35:32;;;;;;;0.10;0.10;;;;;;;;;;4824757;29;20059;-96
2021/07/16 08:38:07;;;;;;;0.43;0.43;;;;;;;;;;4814191;29;20465;-96
2021/07/16 08:40:39;;;;;;;0.10;0.10;;;;;;;;;;4832128;29;20132;-96
2021/07/16 08:43:14;;;;;;;0.20;0.20;;;;;;;;;;4832665;29;20058;-96
2021/07/16 08:45:42;;;;;;;0.30;0.30;;;;;;;;;;4799242;29;20059;-96
2021/07/16 08:50:44;;;;;;;0.10;0.10;;;;;;;;;;4828334;29;20039;-94
2021/07/16 08:53:12;;;;;;;0.10;0.10;;;;;;;;;;4790016;29;20054;-96
2021/07/16 08:55:41;;;;;;;0.30;0.30;;;;;;;;;;4787104;29;20150;-95
2021/07/16 08:58:07;;;;;;;0.20;0.20;;;;;;;;;;4799699;29;20050;-94
2021/07/16 09:00:33;;;;;;;0.10;0.10;;;;;;;;;;4795280;29;20046;-94
2021/07/16 09:03:03;;;;;;;0.10;0.10;;;;;;;;;;4796726;29;20038;-95
2021/07/16 09:05:39;;;;;;;0.20;0.20;;;;;;;;;;4781585;29;20050;-94
2021/07/16 09:08:13;;;;;;;0.20;0.20;;;;;;;;;;4780157;29;20669;-94
2021/07/16 09:10:51;;;;;;;0.10;0.10;;;;;;;;;;4779764;29;20554;-94
2021/07/16 09:13:21;;;;;;;0.20;0.20;;;;;;;;;;4795987;29;20061;-95
2021/07/16 09:15:53;;;;;;;0.10;0.10;;;;;;;;;;4781127;29;20057;-95
2021/07/16 09:18:30;;;;;;;0.10;0.10;;;;;;;;;;4780102;29;20065;-94
2021/07/16 09:21:02;;;;;;;0.10;0.10;;;;;;;;;;4795139;29;20054;-94
2021/07/16 09:23:37;;;;;;;0.10;0.10;;;;;;;;;;4795249;29;20054;-94
2021/07/16 09:26:11;;;;;;;0.10;0.10;;;;;;;;;;4794936;29;20053;-94
2021/07/16 09:28:42;;;;;;;0.10;0.10;;;;;;;;;;4780312;29;20058;-93
2021/07/16 09:31:10;;;;;;;0.20;0.20;;;;;;;;;;4794620;29;20050;-93
2021/07/16 09:33:43;;;;;;;0.20;0.20;;;;;;;;;;4792700;29;20034;-92
2021/07/16 09:36:09;;;;;;;0.10;0.10;;;;;;;;;;4794516;29;20045;-92
2021/07/16 09:38:35;;;;;;;0.20;0.20;;;;;;;;;;4794372;29;20100;-92
2021/07/16 09:41:09;;;;;;;0.30;0.30;;;;;;;;;;4794247;29;20046;-91
2021/07/16 09:43:35;;;;;;;0.10;0.10;;;;;;;;;;4794349;29;20042;-91
2021/07/16 09:46:02;;;;;;;0.10;0.10;;;;;;;;;;4809227;29;20047;-96
2021/07/16 09:48:33;;;;;;;0.10;0.10;;;;;;;;;;4779920;29;20057;-94
2021/07/16 09:51:20;;;;;;;0.30;0.30;;;;;;;;;;4810860;29;20050;-92
2021/07/16 09:53:48;;;;;;;0.20;0.20;;;;;;;;;;4827011;29;20453;-91
2021/07/16 09:56:36;;;;;;;0.25;0.25;;;;;;;;;;4826514;29;20550;-91
2021/07/16 09:59:03;;;;;;;0.13;0.13;;;;;;;;;;4842797;29;20050;-89
2021/07/16 10:01:29;;;;;;;0.50;0.50;;;;;;;;;;4826419;29;20049;-90
2021/07/16 10:03:55;;;;;;;0.10;0.10;;;;;;;;;;4811684;29;20049;-92
2021/07/16 10:06:21;;;;;;;0.10;0.10;;;;;;;;;;4812032;29;20042;-91
2021/07/16 10:08:47;;;;;;;0.10;0.10;;;;;;;;;;4814406;29;20073;-91
2021/07/16 10:11:19;;;;;;;0.20;0.20;;;;;;;;;;4811543;29;20388;-90
2021/07/16 10:13:45;;;;;;;0.30;0.30;;;;;;;;;;4812437;29;20091;-95
2021/07/16 10:16:11;;;;;;;0.20;0.20;;;;;;;;;;4812146;29;20483;-92
2021/07/16 10:18:37;;;;;;;0.68;0.68;;;;;;;;;;4811802;29;20088;-94
2021/07/16 10:21:03;;;;;;;0.10;0.10;;;;;;;;;;4810760;29;20084;-93
2021/07/16 10:23:29;;;;;;;0.20;0.20;;;;;;;;;;4811935;29;20054;-93
2021/07/16 10:25:56;;;;;;;0.20;0.20;;;;;;;;;;4812015;29;20121;-93
2021/07/16 10:28:30;;;;;;;1.58;0.63;;;;;;;;;;4811972;29;20037;-93
2021/07/16 10:30:57;;;;;;;0.15;0.15;;;;;;;;;;4811880;29;20053;-92
2021/07/16 10:33:33;;;;;;;0.20;0.20;;;;;;;;;;4826932;29;20045;-92
2021/07/16 10:35:59;;;;;;;0.20;0.20;;;;;;;;;;4811109;29;20081;-93
2021/07/16 10:38:34;;;;;;;0.20;0.20;;;;;;;;;;4811241;29;20053;-93
2021/07/16 10:41:01;;;;;;;0.20;0.20;;;;;;;;;;4805595;29;20038;-92
2021/07/16 10:43:27;;;;;;;0.57;0.57;;;;;;;;;;4778064;29;20141;-91
2021/07/16 10:45:56;;;;;;;0.20;0.20;;;;;;;;;;4824034;29;20039;-91
2021/07/16 10:48:22;;;;;;;0.35;0.35;;;;;;;;;;4792906;29;20087;-93
2021/07/16 10:50:53;;;;;;;0.30;0.30;;;;;;;;;;4794640;29;20051;-94
2021/07/16 10:53:28;;;;;;;0.30;0.30;;;;;;;;;;4780073;29;20074;-95
2021/07/16 10:55:54;;;;;;;0.20;0.20;;;;;;;;;;4809912;29;20045;-94
2021/07/16 10:58:20;;;;;;;0.20;0.20;;;;;;;;;;4808605;29;20034;-96
2021/07/16 11:00:47;;;;;;;0.20;0.20;;;;;;;;;;4809661;29;20468;-95
2021/07/16 11:03:16;;;;;;;0.22;0.22;;;;;;;;;;4793291;29;20038;-93
2021/07/16 11:05:48;;;;;;;0.20;0.20;;;;;;;;;;4780725;29;20507;-93
2021/07/16 11:08:34;;;;;;;0.20;0.20;;;;;;;;;;4808858;29;20570;-94
2021/07/16 11:11:01;;;;;;;0.40;0.40;;;;;;;;;;4811060;29;20071;-94
2021/07/16 11:13:40;;;;;;;0.43;0.30;;;;;;;;;;4779892;29;20423;-94
2021/07/16 11:16:24;;;;;;;0.30;0.30;;;;;;;;;;4810056;29;20069;-93
2021/07/16 11:18:59;;;;;;;0.10;0.10;;;;;;;;;;4808998;29;20045;-94
2021/07/16 11:21:40;;;;;;;0.20;0.20;;;;;;;;;;4824152;29;20065;-95
2021/07/16 11:24:21;;;;;;;0.30;0.30;;;;;;;;;;4820509;29;20050;-94
2021/07/16 11:26:47;;;;;;;0.30;0.30;;;;;;;;;;4826552;29;20046;-92
2021/07/16 11:29:13;;;;;;;0.85;0.30;;;;;;;;;;4826497;29;20042;-93
2021/07/16 11:31:40;;;;;;;0.20;0.20;;;;;;;;;;4796071;29;20356;-92
2021/07/16 11:34:09;;;;;;;0.20;0.20;;;;;;;;;;4815023;29;20037;-94
2021/07/16 11:36:35;;;;;;;0.10;0.10;;;;;;;;;;4800501;29;20517;-93
2021/07/16 11:39:02;;;;;;;0.20;0.20;;;;;;;;;;4814861;29;20042;-93
2021/07/16 11:41:31;;;;;;;0.10;0.10;;;;;;;;;;4814809;29;20076;-93
2021/07/16 11:44:01;;;;;;;0.30;0.30;;;;;;;;;;4814812;29;20066;-94
2021/07/16 11:46:30;;;;;;;0.20;0.20;;;;;;;;;;4815755;29;20053;-93
2021/07/16 11:48:56;;;;;;;0.40;0.40;;;;;;;;;;4814761;29;20058;-93
2021/07/16 11:51:27;;;;;;;0.20;0.20;;;;;;;;;;4799637;29;20057;-93
2021/07/16 11:53:53;;;;;;;0.15;0.15;;;;;;;;;;4814462;29;20116;-91
2021/07/16 11:56:19;;;;;;;0.43;0.43;;;;;;;;;;4814497;29;20098;-92
2021/07/16 11:58:48;;;;;;;0.20;0.20;;;;;;;;;;4814227;29;20074;-93
2021/07/16 12:01:16;;;;;;;0.47;0.47;;;;;;;;;;4814451;29;20558;-93
2021/07/16 12:03:42;;;;;;;0.20;0.20;;;;;;;;;;4799595;29;20069;-93
2021/07/16 12:06:09;;;;;;;0.20;0.20;;;;;;;;;;4799506;29;20057;-89
2021/07/16 12:08:38;;;;;;;0.20;0.20;;;;;;;;;;4813944;29;20113;-90
2021/07/16 12:11:07;;;;;;;0.13;0.13;;;;;;;;;;4814161;29;20483;-91
2021/07/16 12:13:34;;;;;;;0.40;0.40;;;;;;;;;;4813783;29;20042;-91
2021/07/16 12:16:04;;;;;;;0.20;0.20;;;;;;;;;;4813813;29;20034;-89
2021/07/16 12:18:30;;;;;;;0.20;0.20;;;;;;;;;;4799055;29;20054;-91
2021/07/16 12:20:56;;;;;;;0.32;0.32;;;;;;;;;;4813689;29;20038;-91
2021/07/16 12:23:22;;;;;;;0.35;0.35;;;;;;;;;;4813747;29;20399;-91
2021/07/16 12:25:48;;;;;;;0.10;0.10;;;;;;;;;;4813429;29;20058;-91
2021/07/16 12:28:18;;;;;;;0.20;0.20;;;;;;;;;;4813372;29;20038;-90
2021/07/16 12:30:45;;;;;;;0.10;0.10;;;;;;;;;;4829108;29;20042;-91
2021/07/16 12:33:11;;;;;;;0.40;0.40;;;;;;;;;;4813352;29;20515;-94
2021/07/16 12:35:41;;;;;;;0.20;0.20;;;;;;;;;;4828569;29;20167;-94
2021/07/16 12:38:08;;;;;;;0.35;0.35;;;;;;;;;;4799102;29;20058;-92
2021/07/16 12:40:34;;;;;;;0.20;0.20;;;;;;;;;;4813667;29;20042;-92
2021/07/16 12:43:05;;;;;;;0.30;0.30;;;;;;;;;;4813164;29;20229;-88
2021/07/16 12:45:51;;;;;;;0.20;0.20;;;;;;;;;;4812656;29;20057;-93
2021/07/16 12:48:30;;;;;;;0.30;0.30;;;;;;;;;;4798970;29;20062;-92
2021/07/16 12:51:16;;;;;;;0.47;0.47;;;;;;;;;;4813670;29;20077;-93
2021/07/16 12:53:43;;;;;;;0.20;0.20;;;;;;;;;;4828437;29;20052;-93
2021/07/16 12:56:15;;;;;;;0.20;0.20;;;;;;;;;;4813391;29;20342;-94
2021/07/16 12:58:41;;;;;;;0.20;0.20;;;;;;;;;;4813419;29;20085;-93
2021/07/16 13:01:07;;;;;;;0.20;0.20;;;;;;;;;;4798604;29;20107;-95
2021/07/16 13:03:37;;;;;;;0.20;0.20;;;;;;;;;;4798753;29;20076;-94
2021/07/16 13:06:15;;;;;;;0.10;0.10;;;;;;;;;;4813391;29;20506;-92
2021/07/16 13:08:41;;;;;;;0.10;0.10;;;;;;;;;;4813194;29;20042;-92
2021/07/16 13:11:11;;;;;;;0.20;0.20;;;;;;;;;;4798350;29;20049;-92
2021/07/16 13:13:37;;;;;;;0.20;0.20;;;;;;;;;;4813093;29;20044;-94
2021/07/16 13:16:06;;;;;;;0.20;0.20;;;;;;;;;;4798315;29;20046;-93
2021/07/16 13:18:32;;;;;;;0.20;0.20;;;;;;;;;;4827814;29;20045;-93
2021/07/16 13:20:59;;;;;;;0.15;0.15;;;;;;;;;;4797859;29;20045;-92
2021/07/16 13:23:25;;;;;;;0.22;0.22;;;;;;;;;;4812883;29;20129;-93
2021/07/16 13:26:10;;;;;;;0.20;0.20;;;;;;;;;;4800418;29;20113;-94
2021/07/16 13:28:37;;;;;;;3.13;1.38;;;;;;;;;;4801872;29;20132;-94
2021/07/16 13:31:03;;;;;;;0.20;0.20;;;;;;;;;;4799630;29;20102;-92
2021/07/16 13:33:29;;;;;;;0.25;0.25;;;;;;;;;;4800694;29;20056;-94
2021/07/16 13:35:55;;;;;;;0.10;0.10;;;;;;;;;;4800260;29;20554;-92
2021/07/16 13:38:22;;;;;;;0.20;0.20;;;;;;;;;;4812538;29;20116;-94
2021/07/16 13:40:49;;;;;;;0.20;0.20;;;;;;;;;;4812582;29;20094;-94
2021/07/16 13:43:16;;;;;;;0.20;0.20;;;;;;;;;;4827631;29;20455;-94
2021/07/16 13:45:42;;;;;;;0.20;0.20;;;;;;;;;;4797675;29;20068;-93
2021/07/16 13:48:08;;;;;;;0.20;0.20;;;;;;;;;;4812582;29;20050;-93
2021/07/16 13:50:34;;;;;;;0.10;0.10;;;;;;;;;;4812588;29;20591;-93
2021/07/16 13:53:00;;;;;;;0.40;0.40;;;;;;;;;;4812371;29;20121;-93
2021/07/16 13:55:33;;;;;;;0.20;0.20;;;;;;;;;;4827328;29;20052;-94
2021/07/16 13:57:59;;;;;;;0.17;0.17;;;;;;;;;;4811707;29;20090;-92
2021/07/16 14:00:25;;;;;;;0.20;0.20;;;;;;;;;;4812028;29;20566;-91
2021/07/16 14:02:51;;;;;;;0.20;0.20;;;;;;;;;;4796844;29;20049;-93
2021/07/16 14:05:18;;;;;;;0.30;0.30;;;;;;;;;;4811950;29;20053;-93
2021/07/16 14:07:44;;;;;;;0.20;0.20;;;;;;;;;;4797344;29;20046;-93
2021/07/16 14:10:10;;;;;;;0.60;0.60;;;;;;;;;;4797430;29;20056;-94
2021/07/16 14:12:37;;;;;;;0.55;0.55;;;;;;;;;;4827555;29;20468;-95
2021/07/16 14:15:03;;;;;;;0.20;0.20;;;;;;;;;;4797138;29;20053;-94
2021/07/16 14:17:31;;;;;;;0.25;0.25;;;;;;;;;;4812447;29;20054;-96
2021/07/16 14:19:57;;;;;;;0.20;0.20;;;;;;;;;;4812208;29;20038;-94
2021/07/16 14:22:24;;;;;;;0.20;0.20;;;;;;;;;;4811706;29;20045;-94
2021/07/16 14:24:51;;;;;;;0.20;0.20;;;;;;;;;;4796958;29;20061;-95
2021/07/16 14:27:17;;;;;;;0.20;0.20;;;;;;;;;;4796719;29;20049;-96
2021/07/16 14:29:47;;;;;;;0.10;0.10;;;;;;;;;;4797328;29;20045;-96
2021/07/16 14:32:13;;;;;;;0.20;0.20;;;;;;;;;;4814478;29;20041;-96
2021/07/16 14:34:51;;;;;;;0.25;0.25;;;;;;;;;;4806169;29;20103;-96
2021/07/16 14:37:19;;;;;;;0.10;0.10;;;;;;;;;;4816930;29;20064;-95
2021/07/16 14:39:50;;;;;;;0.20;0.20;;;;;;;;;;4798796;29;20113;-96
2021/07/16 14:42:16;;;;;;;0.10;0.10;;;;;;;;;;4811811;29;20099;-92
2021/07/16 14:44:43;;;;;;;0.20;0.20;;;;;;;;;;4826167;29;20042;-91
2021/07/16 14:47:09;;;;;;;0.95;0.95;;;;;;;;;;4810880;29;20046;-90
2021/07/16 14:49:35;;;;;;;0.20;0.20;;;;;;;;;;4810313;29;20046;-91